sensor_id;sensor_type;location;lat;lon;timestamp;P1;durP1;ratioP1;P2;durP2;ratioP2
64716;SDS011;51146;50.274;19.000;2022-08-02T00:00:08;15.60;;;11.48;;
64716;SDS011;51146;50.274;19.000;2022-08-02T00:02:36;14.45;;;11.95;;
64716;SDS011;51146;50.274;19.000;2022-08-02T00:05:03;14.20;;;12.05;;
64716;SDS011;51146;50.274;19.000;2022-08-02T00:07:30;13.38;;;11.60;;
64716;SDS011;51146;50.274;19.000;2022-08-02T00:10:00;14.35;;;10.93;;
64716;SDS011;51146;50.274;19.000;2022-08-02T00:12:27;14.30;;;12.05;;
64716;SDS011;51146;50.274;19.000;2022-08-02T00:14:54;18.40;;;12.52;;
64716;SDS011;51146;50.274;19.000;2022-08-02T00:17:21;15.45;;;12.60;;
64716;SDS011;51146;50.274;19.000;2022-08-02T00:19:48;14.88;;;12.20;;
64716;SDS011;51146;50.274;19.000;2022-08-02T00:22:14;14.88;;;13.35;;
64716;SDS011;51146;50.274;19.000;2022-08-02T00:24:41;17.48;;;14.48;;
64716;SDS011;51146;50.274;19.000;2022-08-02T00:27:08;21.13;;;16.15;;
64716;SDS011;51146;50.274;19.000;2022-08-02T00:29:35;20.50;;;15.48;;
64716;SDS011;51146;50.274;19.000;2022-08-02T00:32:17;20.73;;;16.33;;
64716;SDS011;51146;50.274;19.000;2022-08-02T00:34:44;19.15;;;16.55;;
64716;SDS011;51146;50.274;19.000;2022-08-02T00:37:11;17.98;;;15.88;;
64716;SDS011;51146;50.274;19.000;2022-08-02T00:39:40;17.27;;;15.43;;
64716;SDS011;51146;50.274;19.000;2022-08-02T00:42:08;18.63;;;15.80;;
64716;SDS011;51146;50.274;19.000;2022-08-02T00:44:36;20.48;;;15.70;;
64716;SDS011;51146;50.274;19.000;2022-08-02T00:47:03;21.65;;;17.73;;
64716;SDS011;51146;50.274;19.000;2022-08-02T00:49:30;22.67;;;17.67;;
64716;SDS011;51146;50.274;19.000;2022-08-02T00:51:58;20.88;;;18.33;;
64716;SDS011;51146;50.274;19.000;2022-08-02T00:54:26;24.08;;;19.27;;
64716;SDS011;51146;50.274;19.000;2022-08-02T00:56:53;23.10;;;19.13;;
64716;SDS011;51146;50.274;19.000;2022-08-02T00:59:19;25.05;;;19.38;;
64716;SDS011;51146;50.274;19.000;2022-08-02T01:01:46;22.77;;;18.98;;
64716;SDS011;51146;50.274;19.000;2022-08-02T01:04:23;23.70;;;19.10;;
64716;SDS011;51146;50.274;19.000;2022-08-02T01:06:55;23.67;;;19.30;;
64716;SDS011;51146;50.274;19.000;2022-08-02T01:09:22;21.25;;;18.50;;
64716;SDS011;51146;50.274;19.000;2022-08-02T01:11:49;23.67;;;19.65;;
64716;SDS011;51146;50.274;19.000;2022-08-02T01:14:16;28.70;;;22.00;;
64716;SDS011;51146;50.274;19.000;2022-08-02T01:17:05;34.63;;;23.15;;
64716;SDS011;51146;50.274;19.000;2022-08-02T01:34:05;34.45;;;23.55;;
64716;SDS011;51146;50.274;19.000;2022-08-02T01:36:48;35.72;;;24.23;;
64716;SDS011;51146;50.274;19.000;2022-08-02T01:39:24;35.70;;;26.63;;
64716;SDS011;51146;50.274;19.000;2022-08-02T01:41:57;39.95;;;27.00;;
64716;SDS011;51146;50.274;19.000;2022-08-02T01:44:29;39.55;;;26.52;;
64716;SDS011;51146;50.274;19.000;2022-08-02T01:47:04;39.35;;;26.75;;
64716;SDS011;51146;50.274;19.000;2022-08-02T01:49:34;40.45;;;26.40;;
64716;SDS011;51146;50.274;19.000;2022-08-02T01:52:06;38.53;;;24.98;;
64716;SDS011;51146;50.274;19.000;2022-08-02T01:57:25;31.80;;;22.15;;
64716;SDS011;51146;50.274;19.000;2022-08-02T01:59:55;31.35;;;22.35;;
64716;SDS011;51146;50.274;19.000;2022-08-02T02:02:26;33.80;;;23.42;;
64716;SDS011;51146;50.274;19.000;2022-08-02T02:04:57;31.65;;;22.65;;
64716;SDS011;51146;50.274;19.000;2022-08-02T02:07:25;31.40;;;21.42;;
64716;SDS011;51146;50.274;19.000;2022-08-02T02:09:52;27.58;;;20.50;;
64716;SDS011;51146;50.274;19.000;2022-08-02T02:12:20;28.90;;;19.65;;
64716;SDS011;51146;50.274;19.000;2022-08-02T02:14:50;28.00;;;19.30;;
64716;SDS011;51146;50.274;19.000;2022-08-02T02:17:21;25.85;;;19.20;;
64716;SDS011;51146;50.274;19.000;2022-08-02T02:20:16;25.63;;;18.98;;
64716;SDS011;51146;50.274;19.000;2022-08-02T02:22:45;24.55;;;18.80;;
64716;SDS011;51146;50.274;19.000;2022-08-02T02:28:10;24.60;;;17.85;;
64716;SDS011;51146;50.274;19.000;2022-08-02T02:30:41;25.70;;;19.00;;
64716;SDS011;51146;50.274;19.000;2022-08-02T02:33:12;30.55;;;19.83;;
64716;SDS011;51146;50.274;19.000;2022-08-02T02:35:46;27.85;;;20.05;;
64716;SDS011;51146;50.274;19.000;2022-08-02T02:38:16;29.60;;;21.85;;
64716;SDS011;51146;50.274;19.000;2022-08-02T02:40:46;33.28;;;23.20;;
64716;SDS011;51146;50.274;19.000;2022-08-02T02:43:14;31.48;;;22.90;;
64716;SDS011;51146;50.274;19.000;2022-08-02T02:45:42;37.88;;;24.58;;
64716;SDS011;51146;50.274;19.000;2022-08-02T02:48:10;34.45;;;23.42;;
64716;SDS011;51146;50.274;19.000;2022-08-02T02:50:39;34.15;;;24.30;;
64716;SDS011;51146;50.274;19.000;2022-08-02T02:53:07;30.95;;;22.63;;
64716;SDS011;51146;50.274;19.000;2022-08-02T02:55:35;33.30;;;23.48;;
64716;SDS011;51146;50.274;19.000;2022-08-02T02:58:03;28.38;;;21.63;;
64716;SDS011;51146;50.274;19.000;2022-08-02T03:00:30;30.13;;;22.50;;
64716;SDS011;51146;50.274;19.000;2022-08-02T03:03:15;32.35;;;22.95;;
64716;SDS011;51146;50.274;19.000;2022-08-02T03:05:46;34.15;;;24.00;;
64716;SDS011;51146;50.274;19.000;2022-08-02T03:08:13;37.47;;;24.77;;
64716;SDS011;51146;50.274;19.000;2022-08-02T03:10:41;36.55;;;26.35;;
64716;SDS011;51146;50.274;19.000;2022-08-02T03:13:09;36.25;;;24.27;;
64716;SDS011;51146;50.274;19.000;2022-08-02T03:15:36;38.42;;;24.90;;
64716;SDS011;51146;50.274;19.000;2022-08-02T03:18:05;34.38;;;24.67;;
64716;SDS011;51146;50.274;19.000;2022-08-02T03:20:34;38.13;;;25.88;;
64716;SDS011;51146;50.274;19.000;2022-08-02T03:23:01;33.13;;;23.80;;
64716;SDS011;51146;50.274;19.000;2022-08-02T03:25:28;34.58;;;22.80;;
64716;SDS011;51146;50.274;19.000;2022-08-02T03:27:56;35.22;;;22.77;;
64716;SDS011;51146;50.274;19.000;2022-08-02T03:30:22;36.25;;;23.88;;
64716;SDS011;51146;50.274;19.000;2022-08-02T03:32:52;35.33;;;23.48;;
64716;SDS011;51146;50.274;19.000;2022-08-02T03:35:19;33.67;;;22.60;;
64716;SDS011;51146;50.274;19.000;2022-08-02T03:37:49;36.33;;;24.35;;
64716;SDS011;51146;50.274;19.000;2022-08-02T03:40:19;37.30;;;24.02;;
64716;SDS011;51146;50.274;19.000;2022-08-02T03:42:47;38.85;;;23.25;;
64716;SDS011;51146;50.274;19.000;2022-08-02T03:45:14;36.50;;;23.10;;
64716;SDS011;51146;50.274;19.000;2022-08-02T03:47:41;35.47;;;24.92;;
64716;SDS011;51146;50.274;19.000;2022-08-02T03:50:10;32.67;;;22.48;;
64716;SDS011;51146;50.274;19.000;2022-08-02T03:52:39;35.10;;;21.97;;
64716;SDS011;51146;50.274;19.000;2022-08-02T03:55:08;32.08;;;22.73;;
64716;SDS011;51146;50.274;19.000;2022-08-02T03:57:36;32.55;;;22.63;;
64716;SDS011;51146;50.274;19.000;2022-08-02T04:00:05;28.75;;;21.77;;
64716;SDS011;51146;50.274;19.000;2022-08-02T04:02:34;35.00;;;23.40;;
64716;SDS011;51146;50.274;19.000;2022-08-02T04:05:01;33.13;;;21.63;;
64716;SDS011;51146;50.274;19.000;2022-08-02T04:07:28;37.58;;;24.20;;
64716;SDS011;51146;50.274;19.000;2022-08-02T04:10:15;37.42;;;26.75;;
64716;SDS011;51146;50.274;19.000;2022-08-02T04:12:42;38.08;;;27.00;;
64716;SDS011;51146;50.274;19.000;2022-08-02T04:15:12;37.35;;;25.60;;
64716;SDS011;51146;50.274;19.000;2022-08-02T04:17:47;35.80;;;24.50;;
64716;SDS011;51146;50.274;19.000;2022-08-02T04:20:19;31.08;;;21.73;;
64716;SDS011;51146;50.274;19.000;2022-08-02T04:22:50;32.60;;;22.98;;
64716;SDS011;51146;50.274;19.000;2022-08-02T04:25:22;34.97;;;22.45;;
64716;SDS011;51146;50.274;19.000;2022-08-02T04:28:06;29.38;;;21.42;;
64716;SDS011;51146;50.274;19.000;2022-08-02T04:30:43;31.15;;;22.02;;
64716;SDS011;51146;50.274;19.000;2022-08-02T04:33:11;30.77;;;20.73;;
64716;SDS011;51146;50.274;19.000;2022-08-02T04:35:38;23.27;;;17.52;;
64716;SDS011;51146;50.274;19.000;2022-08-02T04:38:05;22.27;;;17.27;;
64716;SDS011;51146;50.274;19.000;2022-08-02T04:40:35;25.17;;;17.75;;
64716;SDS011;51146;50.274;19.000;2022-08-02T04:43:03;23.67;;;17.58;;
64716;SDS011;51146;50.274;19.000;2022-08-02T04:45:30;26.00;;;18.73;;
64716;SDS011;51146;50.274;19.000;2022-08-02T04:47:58;27.13;;;18.55;;
64716;SDS011;51146;50.274;19.000;2022-08-02T04:50:32;24.52;;;17.83;;
64716;SDS011;51146;50.274;19.000;2022-08-02T04:53:00;26.30;;;19.20;;
64716;SDS011;51146;50.274;19.000;2022-08-02T04:55:26;22.45;;;17.33;;
64716;SDS011;51146;50.274;19.000;2022-08-02T04:57:54;26.83;;;19.05;;
64716;SDS011;51146;50.274;19.000;2022-08-02T05:00:23;27.95;;;19.80;;
64716;SDS011;51146;50.274;19.000;2022-08-02T05:02:51;26.27;;;18.83;;
64716;SDS011;51146;50.274;19.000;2022-08-02T05:05:18;25.80;;;19.40;;
64716;SDS011;51146;50.274;19.000;2022-08-02T05:07:45;29.95;;;20.75;;
64716;SDS011;51146;50.274;19.000;2022-08-02T05:10:13;27.65;;;20.13;;
64716;SDS011;51146;50.274;19.000;2022-08-02T05:12:40;31.85;;;20.33;;
64716;SDS011;51146;50.274;19.000;2022-08-02T05:15:08;27.05;;;20.00;;
64716;SDS011;51146;50.274;19.000;2022-08-02T05:17:38;30.90;;;20.48;;
64716;SDS011;51146;50.274;19.000;2022-08-02T05:20:14;25.85;;;20.50;;
64716;SDS011;51146;50.274;19.000;2022-08-02T05:22:41;28.45;;;22.58;;
64716;SDS011;51146;50.274;19.000;2022-08-02T05:25:08;32.85;;;21.58;;
64716;SDS011;51146;50.274;19.000;2022-08-02T05:27:35;32.90;;;23.05;;
64716;SDS011;51146;50.274;19.000;2022-08-02T05:30:03;34.65;;;22.88;;
64716;SDS011;51146;50.274;19.000;2022-08-02T05:32:31;27.63;;;22.05;;
64716;SDS011;51146;50.274;19.000;2022-08-02T05:34:59;30.33;;;20.77;;
64716;SDS011;51146;50.274;19.000;2022-08-02T05:37:27;27.58;;;21.55;;
64716;SDS011;51146;50.274;19.000;2022-08-02T05:39:57;34.70;;;23.65;;
64716;SDS011;51146;50.274;19.000;2022-08-02T05:42:26;37.05;;;24.25;;
64716;SDS011;51146;50.274;19.000;2022-08-02T05:44:56;39.08;;;25.35;;
64716;SDS011;51146;50.274;19.000;2022-08-02T05:47:23;35.50;;;24.02;;
64716;SDS011;51146;50.274;19.000;2022-08-02T05:49:49;41.78;;;27.67;;
64716;SDS011;51146;50.274;19.000;2022-08-02T05:52:17;45.97;;;27.85;;
64716;SDS011;51146;50.274;19.000;2022-08-02T05:55:31;40.43;;;28.73;;
64716;SDS011;51146;50.274;19.000;2022-08-02T05:57:47;38.63;;;26.25;;
64716;SDS011;51146;50.274;19.000;2022-08-02T06:00:19;39.75;;;28.33;;
64716;SDS011;51146;50.274;19.000;2022-08-02T06:06:29;53.75;;;30.50;;
64716;SDS011;51146;50.274;19.000;2022-08-02T06:08:44;49.88;;;28.13;;
64716;SDS011;51146;50.274;19.000;2022-08-02T06:11:14;37.92;;;25.95;;
64716;SDS011;51146;50.274;19.000;2022-08-02T06:13:43;31.67;;;25.67;;
64716;SDS011;51146;50.274;19.000;2022-08-02T06:16:11;39.17;;;26.98;;
64716;SDS011;51146;50.274;19.000;2022-08-02T06:18:40;36.60;;;26.30;;
64716;SDS011;51146;50.274;19.000;2022-08-02T06:21:09;31.33;;;24.13;;
64716;SDS011;51146;50.274;19.000;2022-08-02T06:23:56;39.67;;;25.27;;
64716;SDS011;51146;50.274;19.000;2022-08-02T06:26:27;31.67;;;22.00;;
64716;SDS011;51146;50.274;19.000;2022-08-02T06:28:55;30.92;;;21.40;;
64716;SDS011;51146;50.274;19.000;2022-08-02T06:31:23;25.95;;;20.23;;
64716;SDS011;51146;50.274;19.000;2022-08-02T06:33:50;27.10;;;20.33;;
64716;SDS011;51146;50.274;19.000;2022-08-02T06:36:29;25.38;;;19.15;;
64716;SDS011;51146;50.274;19.000;2022-08-02T06:41:28;22.75;;;18.05;;
64716;SDS011;51146;50.274;19.000;2022-08-02T06:44:00;27.30;;;18.90;;
64716;SDS011;51146;50.274;19.000;2022-08-02T06:46:49;22.42;;;18.60;;
64716;SDS011;51146;50.274;19.000;2022-08-02T06:49:37;59.67;;;21.38;;
64716;SDS011;51146;50.274;19.000;2022-08-02T06:52:23;28.15;;;17.55;;
64716;SDS011;51146;50.274;19.000;2022-08-02T06:54:58;23.00;;;17.17;;
64716;SDS011;51146;50.274;19.000;2022-08-02T06:57:26;33.13;;;18.92;;
64716;SDS011;51146;50.274;19.000;2022-08-02T06:59:54;71.75;;;22.17;;
64716;SDS011;51146;50.274;19.000;2022-08-02T07:02:21;37.00;;;19.55;;
64716;SDS011;51146;50.274;19.000;2022-08-02T07:04:48;30.77;;;18.60;;
64716;SDS011;51146;50.274;19.000;2022-08-02T07:07:15;24.23;;;18.20;;
64716;SDS011;51146;50.274;19.000;2022-08-02T07:09:43;22.48;;;18.75;;
64716;SDS011;51146;50.274;19.000;2022-08-02T07:12:29;21.45;;;18.45;;
64716;SDS011;51146;50.274;19.000;2022-08-02T07:14:59;24.30;;;18.95;;
64716;SDS011;51146;50.274;19.000;2022-08-02T07:17:28;31.02;;;20.08;;
64716;SDS011;51146;50.274;19.000;2022-08-02T07:19:56;27.42;;;19.17;;
64716;SDS011;51146;50.274;19.000;2022-08-02T07:22:24;18.85;;;16.83;;
64716;SDS011;51146;50.274;19.000;2022-08-02T07:24:53;21.63;;;17.93;;
64716;SDS011;51146;50.274;19.000;2022-08-02T07:27:21;21.48;;;18.50;;
64716;SDS011;51146;50.274;19.000;2022-08-02T07:29:48;23.63;;;17.13;;
64716;SDS011;51146;50.274;19.000;2022-08-02T07:32:15;23.33;;;17.88;;
64716;SDS011;51146;50.274;19.000;2022-08-02T07:34:46;28.98;;;17.38;;
64716;SDS011;51146;50.274;19.000;2022-08-02T07:37:23;25.80;;;19.02;;
64716;SDS011;51146;50.274;19.000;2022-08-02T07:40:11;20.55;;;17.67;;
64716;SDS011;51146;50.274;19.000;2022-08-02T07:42:45;24.55;;;20.27;;
64716;SDS011;51146;50.274;19.000;2022-08-02T07:45:14;22.65;;;19.17;;
64716;SDS011;51146;50.274;19.000;2022-08-02T07:47:42;23.15;;;20.75;;
64716;SDS011;51146;50.274;19.000;2022-08-02T07:50:11;28.02;;;18.45;;
64716;SDS011;51146;50.274;19.000;2022-08-02T07:52:40;22.27;;;19.90;;
64716;SDS011;51146;50.274;19.000;2022-08-02T07:55:08;21.73;;;19.00;;
64716;SDS011;51146;50.274;19.000;2022-08-02T07:57:36;19.52;;;17.45;;
64716;SDS011;51146;50.274;19.000;2022-08-02T08:00:10;18.98;;;17.10;;
64716;SDS011;51146;50.274;19.000;2022-08-02T08:02:38;25.15;;;18.38;;
64716;SDS011;51146;50.274;19.000;2022-08-02T08:05:04;20.02;;;17.95;;
64716;SDS011;51146;50.274;19.000;2022-08-02T08:07:32;21.33;;;18.08;;
64716;SDS011;51146;50.274;19.000;2022-08-02T08:10:00;20.65;;;16.83;;
64716;SDS011;51146;50.274;19.000;2022-08-02T08:12:27;21.73;;;17.90;;
64716;SDS011;51146;50.274;19.000;2022-08-02T08:14:54;23.65;;;18.25;;
64716;SDS011;51146;50.274;19.000;2022-08-02T08:17:20;19.73;;;16.65;;
64716;SDS011;51146;50.274;19.000;2022-08-02T08:19:48;17.67;;;16.00;;
64716;SDS011;51146;50.274;19.000;2022-08-02T08:22:21;22.92;;;17.92;;
64716;SDS011;51146;50.274;19.000;2022-08-02T08:24:48;17.65;;;15.80;;
64716;SDS011;51146;50.274;19.000;2022-08-02T08:27:16;16.92;;;15.30;;
64716;SDS011;51146;50.274;19.000;2022-08-02T08:29:44;18.25;;;15.70;;
64716;SDS011;51146;50.274;19.000;2022-08-02T08:32:11;16.75;;;15.05;;
64716;SDS011;51146;50.274;19.000;2022-08-02T08:34:44;20.92;;;16.00;;
64716;SDS011;51146;50.274;19.000;2022-08-02T08:37:11;16.80;;;14.88;;
64716;SDS011;51146;50.274;19.000;2022-08-02T08:39:43;16.13;;;14.52;;
64716;SDS011;51146;50.274;19.000;2022-08-02T08:42:26;17.73;;;16.05;;
64716;SDS011;51146;50.274;19.000;2022-08-02T08:44:54;17.10;;;15.40;;
64716;SDS011;51146;50.274;19.000;2022-08-02T08:47:33;20.05;;;15.82;;
64716;SDS011;51146;50.274;19.000;2022-08-02T08:50:03;16.38;;;14.75;;
64716;SDS011;51146;50.274;19.000;2022-08-02T08:52:42;15.27;;;13.80;;
64716;SDS011;51146;50.274;19.000;2022-08-02T08:55:13;14.70;;;13.20;;
64716;SDS011;51146;50.274;19.000;2022-08-02T08:57:41;20.27;;;12.95;;
64716;SDS011;51146;50.274;19.000;2022-08-02T09:00:09;13.75;;;12.45;;
64716;SDS011;51146;50.274;19.000;2022-08-02T09:02:42;13.75;;;12.48;;
64716;SDS011;51146;50.274;19.000;2022-08-02T09:05:11;14.13;;;12.80;;
64716;SDS011;51146;50.274;19.000;2022-08-02T09:07:40;16.60;;;12.52;;
64716;SDS011;51146;50.274;19.000;2022-08-02T09:13:11;16.40;;;11.70;;
64716;SDS011;51146;50.274;19.000;2022-08-02T09:16:06;15.57;;;13.40;;
64716;SDS011;51146;50.274;19.000;2022-08-02T09:18:39;14.90;;;13.35;;
64716;SDS011;51146;50.274;19.000;2022-08-02T09:21:13;13.38;;;12.02;;
64716;SDS011;51146;50.274;19.000;2022-08-02T09:26:13;18.48;;;13.10;;
64716;SDS011;51146;50.274;19.000;2022-08-02T09:28:46;15.02;;;13.30;;
64716;SDS011;51146;50.274;19.000;2022-08-02T09:31:16;14.30;;;12.57;;
64716;SDS011;51146;50.274;19.000;2022-08-02T09:33:55;14.02;;;12.45;;
64716;SDS011;51146;50.274;19.000;2022-08-02T09:36:25;17.85;;;13.25;;
64716;SDS011;51146;50.274;19.000;2022-08-02T09:38:57;19.40;;;12.15;;
64716;SDS011;51146;50.274;19.000;2022-08-02T09:41:27;12.93;;;11.68;;
64716;SDS011;51146;50.274;19.000;2022-08-02T09:43:56;16.55;;;14.82;;
64716;SDS011;51146;50.274;19.000;2022-08-02T09:46:35;14.95;;;10.80;;
64716;SDS011;51146;50.274;19.000;2022-08-02T09:49:07;12.30;;;9.98;;
64716;SDS011;51146;50.274;19.000;2022-08-02T09:51:59;13.00;;;10.00;;
64716;SDS011;51146;50.274;19.000;2022-08-02T09:54:24;11.45;;;9.18;;
64716;SDS011;51146;50.274;19.000;2022-08-02T09:56:55;14.07;;;11.10;;
64716;SDS011;51146;50.274;19.000;2022-08-02T09:59:24;13.00;;;10.90;;
64716;SDS011;51146;50.274;19.000;2022-08-02T10:01:52;13.23;;;9.27;;
64716;SDS011;51146;50.274;19.000;2022-08-02T10:04:27;12.50;;;11.50;;
64716;SDS011;51146;50.274;19.000;2022-08-02T10:06:56;10.38;;;9.18;;
64716;SDS011;51146;50.274;19.000;2022-08-02T10:09:25;10.98;;;9.93;;
64716;SDS011;51146;50.274;19.000;2022-08-02T10:11:54;9.50;;;8.60;;
64716;SDS011;51146;50.274;19.000;2022-08-02T10:14:21;16.35;;;9.57;;
64716;SDS011;51146;50.274;19.000;2022-08-02T10:16:49;12.30;;;9.80;;
64716;SDS011;51146;50.274;19.000;2022-08-02T10:19:18;10.63;;;9.60;;
64716;SDS011;51146;50.274;19.000;2022-08-02T10:22:08;14.50;;;9.55;;
64716;SDS011;51146;50.274;19.000;2022-08-02T10:24:38;31.33;;;10.88;;
64716;SDS011;51146;50.274;19.000;2022-08-02T10:27:14;9.40;;;8.45;;
64716;SDS011;51146;50.274;19.000;2022-08-02T10:29:45;13.32;;;8.50;;
64716;SDS011;51146;50.274;19.000;2022-08-02T10:32:23;11.45;;;8.70;;
64716;SDS011;51146;50.274;19.000;2022-08-02T10:35:03;9.70;;;8.73;;
64716;SDS011;51146;50.274;19.000;2022-08-02T10:37:51;9.57;;;8.65;;
64716;SDS011;51146;50.274;19.000;2022-08-02T10:40:22;16.80;;;10.23;;
64716;SDS011;51146;50.274;19.000;2022-08-02T10:42:50;14.35;;;9.32;;
64716;SDS011;51146;50.274;19.000;2022-08-02T10:47:55;11.82;;;8.63;;
64716;SDS011;51146;50.274;19.000;2022-08-02T10:53:23;9.00;;;8.20;;
64716;SDS011;51146;50.274;19.000;2022-08-02T10:55:53;9.07;;;7.90;;
64716;SDS011;51146;50.274;19.000;2022-08-02T11:00:54;8.70;;;7.72;;
64716;SDS011;51146;50.274;19.000;2022-08-02T11:06:12;11.75;;;8.57;;
64716;SDS011;51146;50.274;19.000;2022-08-02T11:12:05;9.77;;;8.80;;
64716;SDS011;51146;50.274;19.000;2022-08-02T11:14:36;10.15;;;8.52;;
64716;SDS011;51146;50.274;19.000;2022-08-02T11:22:37;11.65;;;10.50;;
64716;SDS011;51146;50.274;19.000;2022-08-02T11:27:50;8.52;;;7.72;;
64716;SDS011;51146;50.274;19.000;2022-08-02T11:30:19;8.48;;;6.93;;
64716;SDS011;51146;50.274;19.000;2022-08-02T11:32:55;10.40;;;8.75;;
64716;SDS011;51146;50.274;19.000;2022-08-02T11:35:34;8.55;;;6.78;;
64716;SDS011;51146;50.274;19.000;2022-08-02T11:38:12;6.93;;;6.40;;
64716;SDS011;51146;50.274;19.000;2022-08-02T11:40:41;11.85;;;8.10;;
64716;SDS011;51146;50.274;19.000;2022-08-02T11:43:42;11.15;;;8.65;;
64716;SDS011;51146;50.274;19.000;2022-08-02T11:46:03;13.20;;;8.23;;
64716;SDS011;51146;50.274;19.000;2022-08-02T11:48:34;9.57;;;7.97;;
64716;SDS011;51146;50.274;19.000;2022-08-02T11:51:03;8.30;;;6.72;;
64716;SDS011;51146;50.274;19.000;2022-08-02T11:53:33;9.30;;;7.82;;
64716;SDS011;51146;50.274;19.000;2022-08-02T11:56:07;9.80;;;8.63;;
64716;SDS011;51146;50.274;19.000;2022-08-02T11:58:35;8.30;;;7.45;;
64716;SDS011;51146;50.274;19.000;2022-08-02T12:01:03;12.70;;;7.80;;
64716;SDS011;51146;50.274;19.000;2022-08-02T12:03:37;8.30;;;7.28;;
64716;SDS011;51146;50.274;19.000;2022-08-02T12:06:05;10.10;;;7.25;;
64716;SDS011;51146;50.274;19.000;2022-08-02T12:08:41;9.77;;;7.38;;
64716;SDS011;51146;50.274;19.000;2022-08-02T12:11:19;9.63;;;8.73;;
64716;SDS011;51146;50.274;19.000;2022-08-02T12:13:47;9.35;;;7.93;;
64716;SDS011;51146;50.274;19.000;2022-08-02T12:16:22;9.13;;;7.63;;
64716;SDS011;51146;50.274;19.000;2022-08-02T12:19:08;11.88;;;8.75;;
64716;SDS011;51146;50.274;19.000;2022-08-02T12:21:45;10.27;;;8.60;;
64716;SDS011;51146;50.274;19.000;2022-08-02T12:24:12;7.78;;;7.13;;
64716;SDS011;51146;50.274;19.000;2022-08-02T12:26:40;9.23;;;7.28;;
64716;SDS011;51146;50.274;19.000;2022-08-02T12:29:10;9.13;;;6.90;;
64716;SDS011;51146;50.274;19.000;2022-08-02T12:31:42;8.48;;;7.70;;
64716;SDS011;51146;50.274;19.000;2022-08-02T12:34:23;8.48;;;7.05;;
64716;SDS011;51146;50.274;19.000;2022-08-02T12:39:33;8.93;;;6.85;;
64716;SDS011;51146;50.274;19.000;2022-08-02T12:42:08;8.30;;;7.60;;
64716;SDS011;51146;50.274;19.000;2022-08-02T12:44:37;12.73;;;8.70;;
64716;SDS011;51146;50.274;19.000;2022-08-02T12:47:15;13.23;;;7.78;;
64716;SDS011;51146;50.274;19.000;2022-08-02T12:49:41;9.02;;;7.53;;
64716;SDS011;51146;50.274;19.000;2022-08-02T12:52:21;8.55;;;7.30;;
64716;SDS011;51146;50.274;19.000;2022-08-02T12:54:49;15.15;;;7.88;;
64716;SDS011;51146;50.274;19.000;2022-08-02T12:57:18;8.85;;;7.32;;
64716;SDS011;51146;50.274;19.000;2022-08-02T12:59:48;14.00;;;7.95;;
64716;SDS011;51146;50.274;19.000;2022-08-02T13:02:18;8.05;;;6.30;;
64716;SDS011;51146;50.274;19.000;2022-08-02T13:04:46;7.35;;;5.80;;
64716;SDS011;51146;50.274;19.000;2022-08-02T13:07:15;7.05;;;5.70;;
64716;SDS011;51146;50.274;19.000;2022-08-02T13:09:43;9.43;;;5.50;;
64716;SDS011;51146;50.274;19.000;2022-08-02T13:12:11;10.52;;;5.50;;
64716;SDS011;51146;50.274;19.000;2022-08-02T13:14:38;9.00;;;5.28;;
64716;SDS011;51146;50.274;19.000;2022-08-02T13:17:08;6.97;;;5.07;;
64716;SDS011;51146;50.274;19.000;2022-08-02T13:19:36;11.90;;;5.25;;
64716;SDS011;51146;50.274;19.000;2022-08-02T13:22:04;9.20;;;4.60;;
64716;SDS011;51146;50.274;19.000;2022-08-02T13:24:35;9.18;;;5.13;;
64716;SDS011;51146;50.274;19.000;2022-08-02T13:27:21;6.07;;;5.05;;
64716;SDS011;51146;50.274;19.000;2022-08-02T13:29:49;6.95;;;4.95;;
64716;SDS011;51146;50.274;19.000;2022-08-02T13:32:17;10.40;;;4.75;;
64716;SDS011;51146;50.274;19.000;2022-08-02T13:34:45;6.03;;;4.38;;
64716;SDS011;51146;50.274;19.000;2022-08-02T13:37:12;10.20;;;5.40;;
64716;SDS011;51146;50.274;19.000;2022-08-02T13:39:40;5.47;;;4.80;;
64716;SDS011;51146;50.274;19.000;2022-08-02T13:42:06;6.60;;;5.60;;
64716;SDS011;51146;50.274;19.000;2022-08-02T13:44:41;5.43;;;4.93;;
64716;SDS011;51146;50.274;19.000;2022-08-02T13:47:08;6.57;;;5.68;;
64716;SDS011;51146;50.274;19.000;2022-08-02T13:49:37;6.38;;;5.53;;
64716;SDS011;51146;50.274;19.000;2022-08-02T13:52:18;8.18;;;5.53;;
64716;SDS011;51146;50.274;19.000;2022-08-02T13:54:45;12.25;;;6.18;;
64716;SDS011;51146;50.274;19.000;2022-08-02T13:57:11;7.50;;;6.38;;
64716;SDS011;51146;50.274;19.000;2022-08-02T13:59:38;11.23;;;5.93;;
64716;SDS011;51146;50.274;19.000;2022-08-02T14:02:24;9.65;;;6.60;;
64716;SDS011;51146;50.274;19.000;2022-08-02T14:04:51;11.23;;;6.33;;
64716;SDS011;51146;50.274;19.000;2022-08-02T14:07:18;13.25;;;6.47;;
64716;SDS011;51146;50.274;19.000;2022-08-02T14:09:45;10.88;;;6.93;;
64716;SDS011;51146;50.274;19.000;2022-08-02T14:12:12;8.23;;;5.68;;
64716;SDS011;51146;50.274;19.000;2022-08-02T14:14:40;13.45;;;6.03;;
64716;SDS011;51146;50.274;19.000;2022-08-02T14:17:07;8.15;;;5.50;;
64716;SDS011;51146;50.274;19.000;2022-08-02T14:19:34;9.55;;;6.15;;
64716;SDS011;51146;50.274;19.000;2022-08-02T14:22:00;13.07;;;5.43;;
64716;SDS011;51146;50.274;19.000;2022-08-02T14:24:37;7.63;;;5.95;;
64716;SDS011;51146;50.274;19.000;2022-08-02T14:27:04;7.95;;;5.65;;
64716;SDS011;51146;50.274;19.000;2022-08-02T14:29:31;7.93;;;6.25;;
64716;SDS011;51146;50.274;19.000;2022-08-02T14:31:58;13.88;;;6.43;;
64716;SDS011;51146;50.274;19.000;2022-08-02T14:34:24;11.63;;;6.03;;
64716;SDS011;51146;50.274;19.000;2022-08-02T14:36:51;9.40;;;5.70;;
64716;SDS011;51146;50.274;19.000;2022-08-02T14:39:19;8.85;;;6.38;;
64716;SDS011;51146;50.274;19.000;2022-08-02T14:41:46;9.82;;;5.78;;
64716;SDS011;51146;50.274;19.000;2022-08-02T14:44:26;10.55;;;6.90;;
64716;SDS011;51146;50.274;19.000;2022-08-02T14:46:53;7.15;;;5.93;;
64716;SDS011;51146;50.274;19.000;2022-08-02T14:49:23;6.80;;;6.10;;
64716;SDS011;51146;50.274;19.000;2022-08-02T14:51:55;8.50;;;5.70;;
64716;SDS011;51146;50.274;19.000;2022-08-02T14:54:23;7.95;;;5.53;;
64716;SDS011;51146;50.274;19.000;2022-08-02T14:56:57;6.22;;;5.63;;
64716;SDS011;51146;50.274;19.000;2022-08-02T14:59:25;11.38;;;6.32;;
64716;SDS011;51146;50.274;19.000;2022-08-02T15:01:52;10.82;;;5.75;;
64716;SDS011;51146;50.274;19.000;2022-08-02T15:04:20;9.38;;;5.97;;
64716;SDS011;51146;50.274;19.000;2022-08-02T15:06:47;6.35;;;5.10;;
64716;SDS011;51146;50.274;19.000;2022-08-02T15:09:13;7.28;;;5.57;;
64716;SDS011;51146;50.274;19.000;2022-08-02T15:11:41;7.53;;;6.35;;
64716;SDS011;51146;50.274;19.000;2022-08-02T15:14:16;14.55;;;6.20;;
64716;SDS011;51146;50.274;19.000;2022-08-02T15:16:52;6.57;;;5.97;;
64716;SDS011;51146;50.274;19.000;2022-08-02T15:19:24;7.70;;;6.05;;
64716;SDS011;51146;50.274;19.000;2022-08-02T15:22:11;9.27;;;6.28;;
64716;SDS011;51146;50.274;19.000;2022-08-02T15:24:44;10.95;;;9.95;;
64716;SDS011;51146;50.274;19.000;2022-08-02T15:27:11;9.00;;;6.55;;
64716;SDS011;51146;50.274;19.000;2022-08-02T15:29:40;7.13;;;6.43;;
64716;SDS011;51146;50.274;19.000;2022-08-02T15:32:07;10.68;;;6.43;;